Terminal Aerodrome Forecast
Issued by NWS El Paso, TX

Home | Current Version | Previous Version | Text Only | Print | Product List | Glossary On
Versions: 1 2 3 4 5 6 7 8 9 10 11 12 13 14 15
995
FTUS44 KEPZ 291720
TAFELP
TAF
KELP 291720Z 2918/3018 28010G20KT P6SM FEW100
     FM300300 28012KT P6SM FEW100 FEW250=

USA.gov is the U.S. government's official web portal to all federal, state and local government web resources and services.